Time;durP1;ratioP1;P1;durP2;ratioP2;P2;SDS_P1;SDS_P2;PMS_P1;PMS_P2;Temp;Humidity;BMP_temperature;BMP_pressure;BME280_temperature;BME280_humidity;BME280_pressure;Samples;Min_cycle;Max_cycle;Signal;HPM_P1;HPM_P2
2023/07/01 00:00:56;;;;;;;4.95;1.90;;;16.40;80.00;;;;;;5022516;28;20509;-66
2023/07/01 00:03:21;;;;;;;4.25;2.05;;;16.40;79.90;;;;;;5028220;28;20100;-68
2023/07/01 00:05:47;;;;;;;6.32;2.20;;;16.30;80.10;;;;;;5027752;28;20076;-69
2023/07/01 00:08:12;;;;;;;4.63;2.03;;;16.30;80.00;;;;;;5010632;28;20438;-69
2023/07/01 00:10:37;;;;;;;4.60;1.95;;;16.30;79.80;;;;;;5030899;28;20036;-68
2023/07/01 00:13:03;;;;;;;3.45;1.75;;;16.30;79.60;;;;;;5029064;28;20170;-68
2023/07/01 00:15:28;;;;;;;5.90;2.03;;;16.30;79.30;;;;;;5029729;28;20053;-66
2023/07/01 00:17:54;;;;;;;7.05;1.83;;;16.30;79.60;;;;;;5028715;28;20422;-66
2023/07/01 00:20:21;;;;;;;6.38;1.80;;;16.20;79.10;;;;;;5024906;28;20426;-68
2023/07/01 00:22:46;;;;;;;3.90;1.63;;;16.20;78.80;;;;;;5029188;28;20100;-66
2023/07/01 00:25:12;;;;;;;6.45;1.92;;;16.20;78.60;;;;;;5023649;28;20105;-66
2023/07/01 00:27:38;;;;;;;5.07;1.90;;;16.30;78.20;;;;;;5029905;28;20046;-66
2023/07/01 00:30:04;;;;;;;5.15;1.90;;;16.20;77.90;;;;;;5028744;28;20112;-66
2023/07/01 00:32:29;;;;;;;5.00;1.90;;;16.30;77.70;;;;;;5029407;28;20025;-66
2023/07/01 00:34:55;;;;;;;5.10;1.80;;;16.30;77.80;;;;;;5027664;28;20153;-68
2023/07/01 00:37:20;;;;;;;5.63;2.08;;;16.30;77.30;;;;;;5032313;28;20037;-67
2023/07/01 00:39:46;;;;;;;3.78;1.85;;;16.30;77.20;;;;;;5028708;28;20476;-66
2023/07/01 00:42:12;;;;;;;2.85;1.70;;;16.30;76.50;;;;;;5031245;28;20041;-67
2023/07/01 00:44:37;;;;;;;6.28;1.75;;;16.30;76.70;;;;;;5026649;28;20131;-66
2023/07/01 00:47:03;;;;;;;4.35;1.92;;;16.30;76.30;;;;;;5033278;28;20129;-67
2023/07/01 00:49:29;;;;;;;4.10;1.58;;;16.30;75.80;;;;;;5032156;28;20120;-68
2023/07/01 00:51:56;;;;;;;3.08;1.75;;;16.30;75.80;;;;;;5029271;28;20037;-66
2023/07/01 00:54:22;;;;;;;6.13;1.67;;;16.40;75.30;;;;;;5029993;28;20032;-67
2023/07/01 00:56:47;;;;;;;4.57;1.77;;;16.30;75.00;;;;;;5028372;28;20025;-69
2023/07/01 00:59:13;;;;;;;5.57;1.52;;;16.40;75.40;;;;;;5026756;28;20419;-66
2023/07/01 01:01:43;;;;;;;4.07;1.90;;;16.50;74.60;;;;;;5027940;28;20104;-66
2023/07/01 01:04:29;;;;;;;6.95;1.85;;;16.40;74.30;;;;;;5029480;28;20049;-67
2023/07/01 01:07:05;;;;;;;5.78;1.77;;;16.40;74.00;;;;;;5021417;28;20039;-66
2023/07/01 01:09:39;;;;;;;14.88;2.13;;;16.50;74.00;;;;;;5032115;28;20099;-67
2023/07/01 01:12:11;;;;;;;4.13;1.88;;;16.50;73.50;;;;;;5031420;28;20037;-67
2023/07/01 01:14:39;;;;;;;4.53;1.73;;;16.40;74.00;;;;;;5038296;28;20057;-71
2023/07/01 01:17:16;;;;;;;4.88;1.70;;;16.50;73.70;;;;;;5026639;28;20053;-67
2023/07/01 01:19:56;;;;;;;5.15;1.98;;;16.50;73.10;;;;;;5025970;28;20052;-69
2023/07/01 01:22:30;;;;;;;3.08;1.48;;;16.40;73.50;;;;;;5010016;28;20128;-67
2023/07/01 01:25:00;;;;;;;2.80;1.50;;;16.50;73.20;;;;;;5028718;28;20041;-68
2023/07/01 01:27:28;;;;;;;4.95;1.90;;;16.50;73.10;;;;;;5026676;28;20018;-69
2023/07/01 01:29:54;;;;;;;4.20;1.92;;;16.40;73.60;;;;;;5020559;28;20029;-67
2023/07/01 01:32:19;;;;;;;6.35;1.85;;;16.40;73.50;;;;;;5009153;28;20515;-68
2023/07/01 01:34:46;;;;;;;5.18;1.67;;;16.40;73.30;;;;;;5024532;28;20055;-68
2023/07/01 01:37:24;;;;;;;5.15;1.88;;;16.40;72.70;;;;;;5032580;28;20057;-68
2023/07/01 01:39:56;;;;;;;3.28;1.73;;;16.40;73.00;;;;;;5023326;28;20061;-68
2023/07/01 01:42:27;;;;;;;5.53;1.75;;;16.40;72.60;;;;;;5021768;28;20428;-67
2023/07/01 01:44:55;;;;;;;5.22;1.90;;;16.40;72.40;;;;;;5022229;28;20029;-68
2023/07/01 01:47:28;;;;;;;4.53;2.05;;;16.40;73.10;;;;;;5031232;28;20430;-67
2023/07/01 01:49:58;;;;;;;6.25;2.00;;;16.40;72.80;;;;;;5009329;28;20116;-67
2023/07/01 01:52:23;;;;;;;3.45;1.60;;;16.40;72.20;;;;;;5033016;28;20428;-68
2023/07/01 01:54:52;;;;;;;4.32;1.80;;;16.40;72.50;;;;;;5025395;28;20037;-69
2023/07/01 01:57:18;;;;;;;4.22;1.85;;;16.40;71.80;;;;;;5025071;28;20036;-67
2023/07/01 01:59:44;;;;;;;5.65;1.52;;;16.40;72.10;;;;;;5027076;28;20041;-69
2023/07/01 02:02:10;;;;;;;4.53;2.13;;;16.40;71.80;;;;;;5025844;28;20042;-67
2023/07/01 02:04:36;;;;;;;3.97;1.88;;;16.40;72.00;;;;;;5019896;28;20614;-70
2023/07/01 02:07:01;;;;;;;2.65;1.48;;;16.40;71.70;;;;;;5025787;28;20034;-68
2023/07/01 02:09:28;;;;;;;3.75;1.70;;;16.40;71.60;;;;;;5027779;28;20107;-67
2023/07/01 02:11:54;;;;;;;3.88;1.67;;;16.40;71.70;;;;;;5026047;28;20041;-67
2023/07/01 02:14:20;;;;;;;4.32;1.67;;;16.50;71.90;;;;;;5023470;28;20108;-67
2023/07/01 02:16:46;;;;;;;6.35;1.88;;;16.50;71.20;;;;;;5020491;28;20137;-68
2023/07/01 02:19:11;;;;;;;4.32;1.98;;;16.40;71.80;;;;;;5027310;28;20033;-68
2023/07/01 02:21:37;;;;;;;4.10;2.30;;;16.40;71.40;;;;;;5022004;28;20467;-68
2023/07/01 02:24:03;;;;;;;3.83;2.00;;;16.50;71.60;;;;;;5027071;28;20065;-68
2023/07/01 02:26:29;;;;;;;4.38;1.75;;;16.40;71.40;;;;;;5023760;28;20442;-67
2023/07/01 02:28:55;;;;;;;4.18;1.60;;;16.40;71.70;;;;;;5026477;28;20056;-68
2023/07/01 02:31:20;;;;;;;4.40;1.98;;;16.40;72.20;;;;;;5027890;28;20051;-67
2023/07/01 02:33:46;;;;;;;3.75;1.73;;;16.40;71.70;;;;;;5035313;28;20101;-68
2023/07/01 02:36:12;;;;;;;7.38;2.17;;;16.40;71.70;;;;;;5026382;28;20025;-68
2023/07/01 02:38:38;;;;;;;4.20;1.92;;;16.30;72.30;;;;;;5028367;28;20033;-67
2023/07/01 02:41:03;;;;;;;8.02;1.77;;;16.30;72.00;;;;;;5035073;28;20029;-67
2023/07/01 02:43:28;;;;;;;4.30;1.80;;;16.30;71.80;;;;;;5027632;28;20032;-67
2023/07/01 02:45:54;;;;;;;4.07;1.90;;;16.30;72.10;;;;;;5027019;28;20036;-67
2023/07/01 02:48:19;;;;;;;7.38;2.17;;;16.30;72.40;;;;;;5025038;28;20112;-68
2023/07/01 02:50:45;;;;;;;4.55;1.92;;;16.30;72.40;;;;;;5028769;28;20029;-67
2023/07/01 02:53:10;;;;;;;3.88;1.85;;;16.30;72.50;;;;;;5027471;28;20052;-67
2023/07/01 02:55:36;;;;;;;8.45;2.13;;;16.30;72.60;;;;;;5027191;28;20422;-67
2023/07/01 02:58:02;;;;;;;4.93;2.00;;;16.30;72.30;;;;;;5027491;28;20085;-67
2023/07/01 03:00:27;;;;;;;5.00;1.80;;;16.30;72.40;;;;;;5027844;28;20033;-67
2023/07/01 03:02:53;;;;;;;7.38;2.20;;;16.30;72.90;;;;;;5028058;28;20124;-67
2023/07/01 03:05:23;;;;;;;5.32;2.40;;;16.30;72.60;;;;;;5023215;28;20089;-67
2023/07/01 03:07:49;;;;;;;3.92;2.10;;;16.30;73.10;;;;;;5024257;28;20449;-67
2023/07/01 03:10:14;;;;;;;5.63;2.03;;;16.30;73.50;;;;;;5033009;28;20029;-69
2023/07/01 03:12:40;;;;;;;5.13;2.63;;;16.30;73.10;;;;;;5030247;28;20385;-67
2023/07/01 03:15:06;;;;;;;5.32;2.28;;;16.30;73.40;;;;;;5032516;28;20029;-68
2023/07/01 03:17:31;;;;;;;5.55;2.40;;;16.30;73.70;;;;;;5023529;28;20036;-67
2023/07/01 03:19:57;;;;;;;7.30;2.63;;;16.30;73.60;;;;;;5016036;28;20075;-69
2023/07/01 03:22:23;;;;;;;5.35;1.90;;;16.30;73.50;;;;;;5027581;28;20029;-67
2023/07/01 03:24:48;;;;;;;7.25;2.50;;;16.20;73.60;;;;;;5022850;28;20124;-67
2023/07/01 03:27:14;;;;;;;11.00;2.35;;;16.20;73.40;;;;;;5022126;28;20047;-67
2023/07/01 03:29:39;;;;;;;4.70;2.53;;;16.20;73.70;;;;;;5023552;28;20067;-67
2023/07/01 03:32:05;;;;;;;4.65;2.30;;;16.20;74.00;;;;;;5023316;28;20033;-67
2023/07/01 03:34:31;;;;;;;3.55;2.10;;;16.20;74.20;;;;;;5033060;28;20046;-67
2023/07/01 03:36:56;;;;;;;6.22;2.65;;;16.20;74.30;;;;;;5025776;28;20049;-67
2023/07/01 03:39:22;;;;;;;4.90;2.55;;;16.20;74.10;;;;;;5026495;28;20096;-68
2023/07/01 03:41:47;;;;;;;9.73;2.97;;;16.20;74.20;;;;;;5028804;28;20072;-69
2023/07/01 03:44:13;;;;;;;4.38;2.25;;;16.20;75.00;;;;;;5025971;28;20025;-67
2023/07/01 03:46:38;;;;;;;4.63;2.17;;;16.20;74.30;;;;;;5023202;28;20028;-67
2023/07/01 03:49:04;;;;;;;5.38;2.88;;;16.20;74.30;;;;;;5031758;28;20112;-68
2023/07/01 03:51:32;;;;;;;5.80;2.35;;;16.20;73.80;;;;;;5028382;28;20017;-67
2023/07/01 03:53:59;;;;;;;9.55;2.83;;;16.20;74.50;;;;;;5027154;28;20441;-68
2023/07/01 03:56:25;;;;;;;5.82;2.40;;;16.20;74.70;;;;;;5025262;28;20080;-67
2023/07/01 03:58:51;;;;;;;5.13;2.35;;;16.20;74.40;;;;;;5027186;28;20025;-67
2023/07/01 04:01:17;;;;;;;5.10;2.40;;;16.30;74.70;;;;;;5025550;28;20055;-67
2023/07/01 04:03:43;;;;;;;6.65;2.38;;;16.20;74.70;;;;;;5032942;28;20164;-67
2023/07/01 04:06:08;;;;;;;4.32;2.50;;;16.30;74.80;;;;;;5001080;28;20474;-67
2023/07/01 04:08:34;;;;;;;7.53;2.83;;;16.20;74.90;;;;;;5025246;28;20479;-68
2023/07/01 04:11:00;;;;;;;5.65;2.10;;;16.20;74.30;;;;;;5021741;28;20033;-67
2023/07/01 04:13:26;;;;;;;5.55;2.33;;;16.20;74.80;;;;;;5040200;28;20095;-68
2023/07/01 04:15:52;;;;;;;6.40;2.50;;;16.20;74.90;;;;;;5030559;28;20112;-67
2023/07/01 04:18:17;;;;;;;4.10;2.30;;;16.30;75.30;;;;;;5032703;28;20441;-68
2023/07/01 04:20:43;;;;;;;8.55;2.50;;;16.30;74.80;;;;;;5031211;28;20033;-67
2023/07/01 04:23:08;;;;;;;4.10;2.40;;;16.30;75.10;;;;;;5027028;28;20021;-68
2023/07/01 04:25:34;;;;;;;8.15;2.40;;;16.30;75.10;;;;;;5018325;28;20025;-67
2023/07/01 04:28:01;;;;;;;6.60;2.65;;;16.30;75.50;;;;;;5018064;28;20013;-64
2023/07/01 04:30:27;;;;;;;3.95;2.33;;;16.20;75.00;;;;;;5010479;28;20025;-64
2023/07/01 04:32:52;;;;;;;6.70;2.55;;;16.20;75.70;;;;;;5026609;28;20422;-63
2023/07/01 04:35:18;;;;;;;6.90;2.50;;;16.20;75.20;;;;;;5015535;28;20052;-63
2023/07/01 04:37:43;;;;;;;8.93;2.42;;;16.20;75.20;;;;;;5021546;28;20078;-63
2023/07/01 04:40:09;;;;;;;11.18;2.88;;;16.30;75.00;;;;;;5038240;28;20053;-64
2023/07/01 04:42:35;;;;;;;9.45;3.03;;;16.30;75.50;;;;;;5030395;28;20094;-64
2023/07/01 04:45:01;;;;;;;7.90;2.35;;;16.30;75.70;;;;;;5034210;28;20057;-63
2023/07/01 04:47:27;;;;;;;5.07;2.45;;;16.40;74.70;;;;;;5021217;28;20025;-64
2023/07/01 04:49:53;;;;;;;4.57;2.45;;;16.40;75.00;;;;;;5019423;28;20037;-65
2023/07/01 04:52:23;;;;;;;7.25;2.50;;;16.40;75.20;;;;;;5020133;28;20059;-64
2023/07/01 04:54:48;;;;;;;5.38;2.42;;;16.40;75.10;;;;;;5025808;28;20033;-68
2023/07/01 04:57:15;;;;;;;6.90;2.30;;;16.40;74.80;;;;;;5028686;28;20139;-65
2023/07/01 04:59:40;;;;;;;5.68;2.78;;;16.50;75.60;;;;;;5035254;28;20090;-64
2023/07/01 05:02:06;;;;;;;6.85;2.40;;;16.40;75.20;;;;;;5034764;28;20087;-65
2023/07/01 05:04:31;;;;;;;3.90;2.10;;;16.50;74.90;;;;;;5041543;28;20126;-63
2023/07/01 05:06:57;;;;;;;6.00;2.33;;;16.40;75.00;;;;;;5028847;28;20082;-64
2023/07/01 05:09:22;;;;;;;4.38;2.10;;;16.40;75.40;;;;;;5026188;28;20056;-64
2023/07/01 05:11:48;;;;;;;5.53;2.42;;;16.50;75.50;;;;;;5023195;28;20053;-65
2023/07/01 05:14:13;;;;;;;6.95;2.40;;;16.40;75.50;;;;;;5011298;28;20034;-65
2023/07/01 05:16:39;;;;;;;4.78;2.30;;;16.40;75.50;;;;;;5031233;28;20094;-64
2023/07/01 05:19:04;;;;;;;4.65;2.42;;;16.50;75.40;;;;;;5025866;28;20037;-65
2023/07/01 05:21:32;;;;;;;6.32;2.50;;;16.50;75.40;;;;;;5029724;28;20025;-64
2023/07/01 05:23:57;;;;;;;7.32;2.80;;;16.50;76.50;;;;;;5032494;28;20041;-64
2023/07/01 05:26:23;;;;;;;7.85;2.83;;;16.60;77.40;;;;;;5020190;28;20428;-64
2023/07/01 05:28:49;;;;;;;5.78;2.70;;;16.50;78.00;;;;;;5023397;28;20071;-64
2023/07/01 05:31:15;;;;;;;6.03;2.58;;;16.30;78.50;;;;;;5007476;28;20318;-64
2023/07/01 05:33:44;;;;;;;3.40;2.50;;;16.20;78.90;;;;;;5013234;28;20030;-64
2023/07/01 05:36:09;;;;;;;4.65;2.03;;;16.10;79.20;;;;;;5020509;28;20036;-63
2023/07/01 05:38:35;;;;;;;6.93;2.70;;;16.00;79.70;;;;;;5036558;28;20037;-64
2023/07/01 05:41:00;;;;;;;7.95;3.03;;;16.00;81.20;;;;;;5028614;28;20476;-64
2023/07/01 05:43:27;;;;;;;6.53;2.83;;;16.00;81.30;;;;;;5018159;28;20025;-67
2023/07/01 05:45:53;;;;;;;8.07;3.42;;;15.90;82.40;;;;;;5016989;28;20018;-64
2023/07/01 05:48:18;;;;;;;4.57;2.78;;;15.80;82.70;;;;;;5020715;28;20022;-64
2023/07/01 05:50:44;;;;;;;8.43;3.13;;;15.90;84.10;;;;;;5019557;28;20028;-63
2023/07/01 05:53:09;;;;;;;7.07;3.80;;;15.80;83.60;;;;;;5022127;28;20032;-64
2023/07/01 05:55:36;;;;;;;10.25;3.58;;;15.70;85.30;;;;;;5025068;28;20326;-64
2023/07/01 05:58:02;;;;;;;6.03;3.53;;;15.80;86.00;;;;;;5026313;28;20112;-64
2023/07/01 06:00:28;;;;;;;7.00;3.40;;;15.80;86.00;;;;;;5023579;28;20172;-66
2023/07/01 06:02:54;;;;;;;6.22;3.33;;;15.70;85.50;;;;;;5032714;28;20128;-63
2023/07/01 06:05:19;;;;;;;8.27;4.05;;;15.80;85.60;;;;;;5030855;28;20104;-62
2023/07/01 06:07:45;;;;;;;7.85;3.58;;;15.80;85.30;;;;;;5030844;28;20045;-63
2023/07/01 06:10:10;;;;;;;6.22;3.50;;;15.80;84.30;;;;;;5026655;28;20029;-66
2023/07/01 06:12:36;;;;;;;7.30;3.42;;;15.90;85.10;;;;;;5022833;28;20057;-64
2023/07/01 06:15:01;;;;;;;7.78;3.47;;;16.00;84.70;;;;;;5024824;28;20040;-64
2023/07/01 06:17:27;;;;;;;7.95;3.47;;;15.80;84.20;;;;;;5017514;28;20494;-64
2023/07/01 06:19:52;;;;;;;6.40;3.35;;;15.80;84.10;;;;;;5022290;28;20517;-64
2023/07/01 06:22:18;;;;;;;6.78;2.90;;;15.80;85.00;;;;;;5021683;28;20025;-63
2023/07/01 06:24:43;;;;;;;5.57;3.10;;;15.70;84.20;;;;;;5029539;28;20129;-63
2023/07/01 06:27:09;;;;;;;8.52;3.47;;;15.70;84.70;;;;;;5023623;28;20374;-63
2023/07/01 06:29:35;;;;;;;6.35;3.38;;;15.70;84.00;;;;;;5027457;28;20030;-64
2023/07/01 06:32:00;;;;;;;6.38;2.80;;;15.80;85.60;;;;;;5029162;28;20052;-64
2023/07/01 06:34:26;;;;;;;6.47;3.30;;;15.90;85.40;;;;;;5025393;28;20025;-68
2023/07/01 06:36:52;;;;;;;5.75;3.20;;;16.00;85.60;;;;;;5026396;28;20310;-64
2023/07/01 06:39:18;;;;;;;6.72;2.92;;;16.00;84.30;;;;;;5023627;28;20093;-68
2023/07/01 06:41:43;;;;;;;6.45;2.70;;;16.10;84.60;;;;;;5025039;28;20023;-65
2023/07/01 06:44:08;;;;;;;8.32;2.95;;;16.10;83.80;;;;;;5023818;28;20025;-67
2023/07/01 06:46:34;;;;;;;5.07;2.90;;;16.20;82.90;;;;;;5027065;28;20061;-66
2023/07/01 06:48:59;;;;;;;5.80;2.90;;;16.40;83.50;;;;;;5007154;28;20125;-66
2023/07/01 06:51:25;;;;;;;4.57;2.40;;;16.50;83.20;;;;;;5019070;28;20182;-65
2023/07/01 06:53:50;;;;;;;4.88;2.60;;;16.50;82.20;;;;;;5026129;28;20033;-65
2023/07/01 06:56:16;;;;;;;4.35;2.50;;;16.60;80.20;;;;;;5017710;28;20026;-66
2023/07/01 06:58:41;;;;;;;4.82;2.45;;;16.70;81.10;;;;;;5021853;28;20407;-65
2023/07/01 07:01:07;;;;;;;8.40;3.10;;;16.80;81.20;;;;;;5022554;28;20148;-66
2023/07/01 07:03:39;;;;;;;4.18;2.42;;;16.70;80.90;;;;;;5020270;28;20040;-65
2023/07/01 07:06:05;;;;;;;5.88;2.40;;;16.80;80.70;;;;;;5026125;28;20116;-64
2023/07/01 07:08:31;;;;;;;6.35;2.22;;;16.90;81.50;;;;;;5029053;28;20445;-64
2023/07/01 07:10:57;;;;;;;6.03;2.40;;;16.80;81.20;;;;;;5025404;28;20163;-66
2023/07/01 07:13:22;;;;;;;6.85;2.60;;;16.60;81.20;;;;;;5026926;28;20473;-64
2023/07/01 07:15:48;;;;;;;8.07;3.10;;;16.50;82.20;;;;;;5025123;28;20112;-65
2023/07/01 07:18:13;;;;;;;7.22;2.88;;;16.40;83.80;;;;;;5024399;28;20345;-67
2023/07/01 07:20:40;;;;;;;6.78;3.25;;;16.30;83.50;;;;;;5021267;28;20108;-66
2023/07/01 07:23:06;;;;;;;5.95;3.15;;;16.20;83.70;;;;;;5026435;28;20100;-65
2023/07/01 07:25:35;;;;;;;9.27;3.40;;;16.20;84.40;;;;;;5023654;28;20021;-64
2023/07/01 07:28:01;;;;;;;5.45;3.28;;;16.10;86.40;;;;;;5018788;28;20091;-65
2023/07/01 07:30:27;;;;;;;5.38;3.10;;;16.00;86.40;;;;;;5019940;28;20051;-65
2023/07/01 07:32:53;;;;;;;6.65;3.50;;;16.00;87.80;;;;;;5023018;28;20024;-64
2023/07/01 07:35:18;;;;;;;6.25;3.80;;;15.90;88.40;;;;;;5022900;28;20083;-65
2023/07/01 07:37:44;;;;;;;9.25;3.22;;;15.80;89.10;;;;;;5017488;28;20137;-69
2023/07/01 07:40:10;;;;;;;7.95;3.40;;;15.80;89.10;;;;;;5020053;28;20588;-65
2023/07/01 07:42:36;;;;;;;7.97;3.78;;;15.80;89.50;;;;;;5017308;28;20037;-67
2023/07/01 07:45:03;;;;;;;6.70;3.63;;;15.80;90.10;;;;;;5014391;28;20021;-68
2023/07/01 07:47:29;;;;;;;9.15;4.15;;;15.80;90.20;;;;;;5022513;28;20120;-64
2023/07/01 07:49:55;;;;;;;7.35;4.10;;;15.90;90.40;;;;;;5024582;28;20360;-66
2023/07/01 07:52:20;;;;;;;6.32;3.80;;;15.90;89.50;;;;;;5017833;28;20040;-66
2023/07/01 07:54:46;;;;;;;6.97;3.70;;;16.00;90.20;;;;;;5020215;28;20091;-66
2023/07/01 07:57:13;;;;;;;7.60;4.13;;;16.00;89.60;;;;;;5023631;28;20089;-66
2023/07/01 07:59:41;;;;;;;8.65;3.47;;;16.00;89.30;;;;;;5021727;28;20422;-70
2023/07/01 08:02:07;;;;;;;7.20;4.07;;;16.10;89.80;;;;;;5026462;28;20095;-66
2023/07/01 08:04:33;;;;;;;8.75;3.78;;;16.00;89.20;;;;;;5025429;28;20112;-67
2023/07/01 08:06:59;;;;;;;6.25;3.65;;;16.00;89.10;;;;;;5027256;28;20104;-66
2023/07/01 08:09:25;;;;;;;9.85;3.85;;;16.00;89.70;;;;;;5024990;28;20029;-68
2023/07/01 08:11:50;;;;;;;5.07;3.75;;;16.20;91.10;;;;;;5030840;28;20093;-70
2023/07/01 08:14:18;;;;;;;5.68;3.60;;;16.10;89.80;;;;;;5021949;28;20065;-65
2023/07/01 08:16:43;;;;;;;7.28;3.75;;;16.10;90.50;;;;;;5024022;28;20017;-64
2023/07/01 08:19:09;;;;;;;6.78;4.00;;;16.10;90.20;;;;;;5023050;28;20464;-65
2023/07/01 08:21:35;;;;;;;8.82;4.03;;;16.00;90.40;;;;;;5020856;28;20037;-65
2023/07/01 08:24:01;;;;;;;6.72;3.55;;;16.00;90.50;;;;;;5024911;28;20017;-65
2023/07/01 08:26:27;;;;;;;7.97;3.88;;;16.00;90.80;;;;;;5017751;28;20361;-66
2023/07/01 08:28:53;;;;;;;6.10;3.90;;;16.00;91.50;;;;;;5024775;28;20041;-66
2023/07/01 08:31:18;;;;;;;11.13;3.85;;;15.90;91.70;;;;;;5028902;28;20048;-68
2023/07/01 08:33:44;;;;;;;9.50;4.32;;;15.90;91.90;;;;;;5031736;28;20101;-66
2023/07/01 08:36:09;;;;;;;10.40;4.28;;;15.80;91.70;;;;;;5024063;28;20373;-66
2023/07/01 08:38:34;;;;;;;7.25;4.22;;;15.80;92.10;;;;;;5027434;28;20072;-65
2023/07/01 08:41:03;;;;;;;9.13;3.90;;;16.00;92.60;;;;;;5029440;28;20374;-66
2023/07/01 08:43:30;;;;;;;6.55;4.13;;;15.90;92.20;;;;;;5029488;28;20200;-65
2023/07/01 08:46:02;;;;;;;7.88;4.28;;;15.90;92.00;;;;;;5025857;28;20094;-67
2023/07/01 08:48:32;;;;;;;6.20;4.20;;;16.00;91.90;;;;;;5030713;28;20117;-63
2023/07/01 08:51:09;;;;;;;6.78;4.07;;;16.00;91.80;;;;;;5018974;28;20404;-66
2023/07/01 08:53:37;;;;;;;8.45;3.58;;;16.00;91.40;;;;;;5025905;28;20438;-70
2023/07/01 08:56:03;;;;;;;6.70;3.72;;;16.10;92.20;;;;;;5026442;28;20071;-66
2023/07/01 08:58:29;;;;;;;7.07;3.97;;;16.00;91.80;;;;;;5014917;28;20038;-70
2023/07/01 09:00:56;;;;;;;9.50;4.50;;;15.90;91.80;;;;;;5020156;28;20029;-65
2023/07/01 09:03:22;;;;;;;6.47;3.92;;;16.00;92.30;;;;;;5025157;28;20033;-63
2023/07/01 09:05:48;;;;;;;6.13;3.83;;;16.10;92.00;;;;;;5024560;28;20033;-66
2023/07/01 09:08:13;;;;;;;7.30;3.90;;;16.00;91.60;;;;;;5026453;28;20045;-71
2023/07/01 09:10:39;;;;;;;9.13;4.00;;;16.10;91.60;;;;;;5019364;28;20018;-65
2023/07/01 09:13:12;;;;;;;6.43;3.75;;;16.20;91.60;;;;;;5026426;28;20049;-68
2023/07/01 09:15:46;;;;;;;9.45;3.92;;;16.40;91.90;;;;;;5026836;28;20030;-68
2023/07/01 09:18:25;;;;;;;7.38;4.03;;;16.70;91.10;;;;;;5021624;28;20057;-67
2023/07/01 09:20:52;;;;;;;8.95;4.28;;;17.00;90.50;;;;;;5017918;28;20430;-65
2023/07/01 09:23:34;;;;;;;5.28;3.20;;;17.20;90.30;;;;;;5018233;28;20034;-65
2023/07/01 09:26:14;;;;;;;4.97;3.15;;;17.50;88.60;;;;;;5030820;28;20424;-66
2023/07/01 09:28:49;;;;;;;6.53;3.00;;;18.00;89.20;;;;;;5024908;28;20128;-64
2023/07/01 09:31:16;;;;;;;5.65;3.20;;;18.00;87.90;;;;;;5025748;28;20148;-66
2023/07/01 09:33:57;;;;;;;5.57;3.03;;;17.70;85.60;;;;;;5021903;28;20106;-67
2023/07/01 09:36:25;;;;;;;6.43;3.00;;;17.90;87.60;;;;;;5025567;28;20025;-67
2023/07/01 09:38:51;;;;;;;7.20;3.25;;;18.00;88.20;;;;;;5025445;28;20167;-66
2023/07/01 09:41:23;;;;;;;6.10;3.17;;;17.90;87.60;;;;;;5022275;28;20073;-67
2023/07/01 09:43:50;;;;;;;5.95;3.25;;;17.80;87.30;;;;;;5027707;28;20353;-65
2023/07/01 09:46:16;;;;;;;7.15;3.78;;;17.70;88.20;;;;;;5026901;28;20432;-67
2023/07/01 09:48:55;;;;;;;5.15;3.05;;;17.30;89.20;;;;;;5025614;28;20037;-66
2023/07/01 09:51:22;;;;;;;8.43;3.80;;;17.10;90.10;;;;;;5019598;28;20086;-66
2023/07/01 09:53:48;;;;;;;5.47;3.75;;;16.90;90.60;;;;;;5021581;28;20090;-69
2023/07/01 09:56:16;;;;;;;7.85;4.25;;;16.60;90.90;;;;;;5026980;28;20474;-65
2023/07/01 09:58:43;;;;;;;6.93;4.25;;;16.50;91.90;;;;;;5026697;28;20025;-66
2023/07/01 10:01:10;;;;;;;8.75;4.85;;;16.50;92.80;;;;;;5017980;28;20520;-67
2023/07/01 10:03:35;;;;;;;7.97;4.88;;;16.50;92.90;;;;;;5019970;28;20029;-64
2023/07/01 10:06:01;;;;;;;7.75;4.70;;;16.60;93.00;;;;;;5022858;28;20037;-66
2023/07/01 10:08:26;;;;;;;9.05;5.20;;;16.70;93.30;;;;;;5014934;28;20156;-68
2023/07/01 10:11:03;;;;;;;9.00;5.78;;;16.60;93.00;;;;;;5018940;28;20438;-66
2023/07/01 10:13:30;;;;;;;8.00;5.95;;;16.80;93.70;;;;;;5024218;28;20078;-66
2023/07/01 10:15:56;;;;;;;9.52;5.30;;;16.70;93.60;;;;;;5011509;28;20025;-67
2023/07/01 10:18:23;;;;;;;8.25;5.47;;;16.50;93.10;;;;;;5019821;28;20022;-68
2023/07/01 10:20:50;;;;;;;9.25;6.15;;;16.60;94.10;;;;;;5029029;28;20033;-67
2023/07/01 10:23:16;;;;;;;10.90;6.05;;;16.60;94.10;;;;;;5022281;28;20339;-70
2023/07/01 10:25:41;;;;;;;11.63;6.50;;;16.50;94.20;;;;;;5021490;28;20049;-67
2023/07/01 10:28:14;;;;;;;12.35;6.88;;;16.30;94.20;;;;;;5016948;28;20025;-66
2023/07/01 10:30:45;;;;;;;12.38;6.63;;;16.40;95.00;;;;;;5019664;28;20422;-70
2023/07/01 10:33:35;;;;;;;;;;;16.30;95.00;;;;;;5024262;28;20095;-67
2023/07/01 10:36:02;;;;;;;11.60;6.47;;;16.30;94.90;;;;;;5016274;28;19961;-69
2023/07/01 10:38:30;;;;;;;11.23;6.93;;;16.30;95.40;;;;;;5022318;28;20045;-69
2023/07/01 10:40:56;;;;;;;9.35;6.68;;;16.30;94.80;;;;;;5030679;28;20051;-68
2023/07/01 10:43:23;;;;;;;11.85;7.75;;;16.30;95.50;;;;;;5022379;28;20029;-65
2023/07/01 10:46:08;;;;;;;10.80;7.18;;;16.30;95.70;;;;;;5026848;28;20124;-66
2023/07/01 10:48:38;;;;;;;10.10;7.88;;;16.30;95.70;;;;;;5024956;28;20096;-67
2023/07/01 10:51:08;;;;;;;10.03;7.90;;;16.30;95.80;;;;;;5023970;28;20026;-66
2023/07/01 10:53:58;;;;;;;12.77;8.47;;;16.30;95.70;;;;;;5019727;28;20272;-64
2023/07/01 10:56:24;;;;;;;13.77;7.95;;;16.30;95.90;;;;;;5024363;28;20044;-65
2023/07/01 10:59:17;;;;;;;14.80;8.32;;;16.30;96.20;;;;;;5022347;28;20361;-65
2023/07/01 11:01:44;;;;;;;13.27;8.60;;;16.30;95.80;;;;;;5022034;28;20053;-65
2023/07/01 11:04:10;;;;;;;14.05;9.02;;;16.50;96.40;;;;;;5023509;28;20179;-66
2023/07/01 11:06:50;;;;;;;14.25;8.38;;;16.50;96.20;;;;;;5022033;28;20341;-64
2023/07/01 11:09:25;;;;;;;12.10;8.23;;;16.50;95.70;;;;;;5023043;28;20349;-64
2023/07/01 11:11:51;;;;;;;15.85;9.18;;;16.50;96.00;;;;;;5026602;28;20061;-64
2023/07/01 11:14:17;;;;;;;14.93;8.88;;;16.40;95.70;;;;;;5028830;28;20425;-65
2023/07/01 11:16:42;;;;;;;12.00;8.68;;;16.50;96.30;;;;;;5024256;28;20081;-65
2023/07/01 11:19:09;;;;;;;12.48;9.38;;;16.50;96.30;;;;;;5024349;28;20398;-66
2023/07/01 11:21:35;;;;;;;10.98;8.43;;;16.50;96.50;;;;;;5019892;28;21560;-65
2023/07/01 11:24:03;;;;;;;12.68;8.93;;;16.50;96.50;;;;;;5010631;28;20223;-65
2023/07/01 11:26:31;;;;;;;11.23;8.75;;;16.50;96.60;;;;;;5022506;28;20096;-65
2023/07/01 11:28:57;;;;;;;13.55;8.75;;;16.50;96.70;;;;;;5023222;28;20065;-66
2023/07/01 11:31:24;;;;;;;11.73;9.07;;;16.60;96.90;;;;;;5019462;28;20404;-65
2023/07/01 11:33:52;;;;;;;14.32;8.90;;;16.50;96.50;;;;;;5017194;28;20017;-66
2023/07/01 11:36:39;;;;;;;12.52;9.10;;;16.50;96.50;;;;;;5019431;28;20314;-65
2023/07/01 11:39:09;;;;;;;16.13;9.57;;;16.50;96.80;;;;;;5025417;28;20116;-68
2023/07/01 11:41:37;;;;;;;13.45;9.70;;;16.60;96.80;;;;;;5023499;28;20025;-65
2023/07/01 11:44:08;;;;;;;12.70;9.48;;;16.70;96.80;;;;;;5027345;28;20045;-71
2023/07/01 11:46:39;;;;;;;12.82;8.90;;;16.90;97.10;;;;;;5024698;28;20122;-69
2023/07/01 11:49:21;;;;;;;11.55;9.50;;;16.80;96.70;;;;;;5026547;28;20125;-67
2023/07/01 11:51:51;;;;;;;15.25;9.30;;;16.80;97.00;;;;;;5017235;28;20112;-67
2023/07/01 11:54:20;;;;;;;12.82;10.63;;;16.80;97.10;;;;;;5024781;28;20048;-68
2023/07/01 11:56:46;;;;;;;13.57;9.88;;;16.90;97.10;;;;;;5020486;28;20093;-70
2023/07/01 11:59:34;;;;;;;12.70;10.52;;;16.90;96.90;;;;;;5026572;28;20018;-66
2023/07/01 12:02:00;;;;;;;11.70;10.50;;;16.80;97.00;;;;;;5029198;28;20079;-66
2023/07/01 12:04:27;;;;;;;11.90;10.25;;;16.80;97.10;;;;;;5023986;28;20108;-66
2023/07/01 12:07:08;;;;;;;13.82;11.00;;;16.90;97.20;;;;;;5023785;28;20036;-66
2023/07/01 12:09:34;;;;;;;13.67;11.20;;;16.80;97.00;;;;;;5026537;28;20135;-71
2023/07/01 12:11:59;;;;;;;14.77;11.25;;;16.80;97.10;;;;;;5006202;28;20064;-67
2023/07/01 12:14:25;;;;;;;13.50;11.65;;;16.70;97.00;;;;;;5006475;28;20409;-68
2023/07/01 12:16:52;;;;;;;14.15;10.93;;;16.70;97.10;;;;;;5001634;28;20434;-68
2023/07/01 12:19:20;;;;;;;13.60;11.85;;;16.70;97.20;;;;;;5003417;28;20038;-68
2023/07/01 12:21:46;;;;;;;15.70;13.00;;;16.70;97.50;;;;;;4998900;28;20140;-70
2023/07/01 12:24:23;;;;;;;16.48;12.95;;;16.70;97.10;;;;;;5009349;28;20544;-67
2023/07/01 12:26:50;;;;;;;17.77;13.57;;;16.80;97.30;;;;;;5004717;28;20030;-67
2023/07/01 12:29:16;;;;;;;16.27;14.25;;;16.80;97.50;;;;;;4998782;28;20064;-68
2023/07/01 12:31:42;;;;;;;16.42;14.52;;;16.90;97.60;;;;;;4999013;28;20045;-66
2023/07/01 12:34:08;;;;;;;17.15;14.90;;;16.90;97.50;;;;;;5004427;28;20054;-68
2023/07/01 12:36:35;;;;;;;17.45;14.05;;;16.80;97.40;;;;;;5005883;28;20106;-68
2023/07/01 12:39:01;;;;;;;16.48;14.65;;;16.90;97.60;;;;;;5003864;28;20092;-69
2023/07/01 12:41:28;;;;;;;15.90;14.30;;;17.00;97.50;;;;;;5011807;28;20433;-68
2023/07/01 12:43:54;;;;;;;19.20;14.98;;;16.90;97.60;;;;;;5006805;28;20304;-67
2023/07/01 12:46:20;;;;;;;16.38;14.55;;;16.90;97.40;;;;;;5004256;28;20040;-68